sensor_id;sensor_type;location;lat;lon;timestamp;P1;P2;P0
65360;PMS5003;51958;55.018;73.536;2024-03-02T00:01:50;0.00;0.00;0.00
65360;PMS5003;51958;55.018;73.536;2024-03-02T00:04:51;0.00;0.00;0.00
65360;PMS5003;51958;55.018;73.536;2024-03-02T00:07:53;0.00;0.00;0.00
65360;PMS5003;51958;55.018;73.536;2024-03-02T00:11:00;0.00;0.00;0.00
65360;PMS5003;51958;55.018;73.536;2024-03-02T00:14:03;0.00;0.00;0.00
65360;PMS5003;51958;55.018;73.536;2024-03-02T00:17:05;0.00;0.00;0.00
65360;PMS5003;51958;55.018;73.536;2024-03-02T00:20:10;0.00;0.00;0.00
65360;PMS5003;51958;55.018;73.536;2024-03-02T00:23:13;0.00;0.00;0.00
65360;PMS5003;51958;55.018;73.536;2024-03-02T00:26:15;0.00;0.00;0.00
65360;PMS5003;51958;55.018;73.536;2024-03-02T00:29:17;0.00;0.00;0.00
65360;PMS5003;51958;55.018;73.536;2024-03-02T00:32:20;0.00;0.00;0.00
65360;PMS5003;51958;55.018;73.536;2024-03-02T00:35:21;0.00;0.00;0.00
65360;PMS5003;51958;55.018;73.536;2024-03-02T00:38:24;0.00;0.00;0.00
65360;PMS5003;51958;55.018;73.536;2024-03-02T00:41:34;0.00;0.00;0.00
65360;PMS5003;51958;55.018;73.536;2024-03-02T00:44:36;0.00;0.00;0.00
65360;PMS5003;51958;55.018;73.536;2024-03-02T00:47:38;0.00;0.00;0.00
65360;PMS5003;51958;55.018;73.536;2024-03-02T00:50:40;0.00;0.00;0.00
65360;PMS5003;51958;55.018;73.536;2024-03-02T00:53:41;0.00;0.00;0.00
65360;PMS5003;51958;55.018;73.536;2024-03-02T00:56:42;0.00;0.00;0.00
65360;PMS5003;51958;55.018;73.536;2024-03-02T00:59:44;0.00;0.00;0.00
65360;PMS5003;51958;55.018;73.536;2024-03-02T01:02:47;0.00;0.00;0.00
65360;PMS5003;51958;55.018;73.536;2024-03-02T01:05:48;0.00;0.00;0.00
65360;PMS5003;51958;55.018;73.536;2024-03-02T01:08:50;0.00;0.00;0.00
65360;PMS5003;51958;55.018;73.536;2024-03-02T01:11:52;0.00;0.00;0.00
65360;PMS5003;51958;55.018;73.536;2024-03-02T01:14:54;0.00;0.00;0.00
65360;PMS5003;51958;55.018;73.536;2024-03-02T01:17:55;0.00;0.00;0.00
65360;PMS5003;51958;55.018;73.536;2024-03-02T01:20:57;0.00;0.00;0.00
65360;PMS5003;51958;55.018;73.536;2024-03-02T01:23:58;0.00;0.00;0.00
65360;PMS5003;51958;55.018;73.536;2024-03-02T01:27:00;0.00;0.00;0.00
65360;PMS5003;51958;55.018;73.536;2024-03-02T01:30:02;0.00;0.00;0.00
65360;PMS5003;51958;55.018;73.536;2024-03-02T01:33:04;0.00;0.00;0.00
65360;PMS5003;51958;55.018;73.536;2024-03-02T01:36:06;0.00;0.00;0.00
65360;PMS5003;51958;55.018;73.536;2024-03-02T01:39:09;0.00;0.00;0.00
65360;PMS5003;51958;55.018;73.536;2024-03-02T01:42:10;0.00;0.00;0.00
65360;PMS5003;51958;55.018;73.536;2024-03-02T01:45:12;0.00;0.00;0.00
65360;PMS5003;51958;55.018;73.536;2024-03-02T01:48:13;0.00;0.00;0.00
65360;PMS5003;51958;55.018;73.536;2024-03-02T01:51:14;0.00;0.00;0.00
65360;PMS5003;51958;55.018;73.536;2024-03-02T01:54:16;0.00;0.00;0.00
65360;PMS5003;51958;55.018;73.536;2024-03-02T01:57:17;0.00;0.00;0.00
65360;PMS5003;51958;55.018;73.536;2024-03-02T02:00:19;0.00;0.00;0.00
65360;PMS5003;51958;55.018;73.536;2024-03-02T02:03:21;0.00;0.00;0.00
65360;PMS5003;51958;55.018;73.536;2024-03-02T02:06:22;0.00;0.00;0.00
65360;PMS5003;51958;55.018;73.536;2024-03-02T02:09:23;0.00;0.00;0.00
65360;PMS5003;51958;55.018;73.536;2024-03-02T02:12:25;0.00;0.00;0.00
65360;PMS5003;51958;55.018;73.536;2024-03-02T02:15:27;0.00;0.00;0.00
65360;PMS5003;51958;55.018;73.536;2024-03-02T02:18:29;0.00;0.00;0.00
65360;PMS5003;51958;55.018;73.536;2024-03-02T02:21:30;0.00;0.00;0.00
65360;PMS5003;51958;55.018;73.536;2024-03-02T02:24:32;0.00;0.00;0.00
65360;PMS5003;51958;55.018;73.536;2024-03-02T02:27:33;0.00;0.00;0.00
65360;PMS5003;51958;55.018;73.536;2024-03-02T02:30:34;0.00;0.00;0.00
65360;PMS5003;51958;55.018;73.536;2024-03-02T02:33:38;0.00;0.00;0.00
65360;PMS5003;51958;55.018;73.536;2024-03-02T02:36:40;0.00;0.00;0.00
65360;PMS5003;51958;55.018;73.536;2024-03-02T02:39:41;0.00;0.00;0.00
65360;PMS5003;51958;55.018;73.536;2024-03-02T02:42:43;0.00;0.00;0.00
65360;PMS5003;51958;55.018;73.536;2024-03-02T02:45:44;0.00;0.00;0.00
65360;PMS5003;51958;55.018;73.536;2024-03-02T02:48:45;0.00;0.00;0.00
65360;PMS5003;51958;55.018;73.536;2024-03-02T02:51:46;0.00;0.00;0.00
65360;PMS5003;51958;55.018;73.536;2024-03-02T02:54:48;0.00;0.00;0.00
65360;PMS5003;51958;55.018;73.536;2024-03-02T02:57:49;0.00;0.00;0.00
65360;PMS5003;51958;55.018;73.536;2024-03-02T03:00:51;0.00;0.00;0.00
65360;PMS5003;51958;55.018;73.536;2024-03-02T03:03:52;0.00;0.00;0.00
65360;PMS5003;51958;55.018;73.536;2024-03-02T03:06:53;0.00;0.00;0.00
65360;PMS5003;51958;55.018;73.536;2024-03-02T03:09:55;0.00;0.00;0.00
65360;PMS5003;51958;55.018;73.536;2024-03-02T03:12:56;0.00;0.00;0.00
65360;PMS5003;51958;55.018;73.536;2024-03-02T03:15:57;0.00;0.00;0.00
65360;PMS5003;51958;55.018;73.536;2024-03-02T03:18:59;0.00;0.00;0.00
65360;PMS5003;51958;55.018;73.536;2024-03-02T03:22:00;0.00;0.00;0.00
65360;PMS5003;51958;55.018;73.536;2024-03-02T03:25:01;0.00;0.00;0.00
65360;PMS5003;51958;55.018;73.536;2024-03-02T03:28:04;0.00;0.00;0.00
65360;PMS5003;51958;55.018;73.536;2024-03-02T03:31:05;0.00;0.00;0.00
65360;PMS5003;51958;55.018;73.536;2024-03-02T03:34:07;0.00;0.00;0.00
65360;PMS5003;51958;55.018;73.536;2024-03-02T03:37:09;0.00;0.00;0.00
65360;PMS5003;51958;55.018;73.536;2024-03-02T03:40:10;0.00;0.00;0.00
65360;PMS5003;51958;55.018;73.536;2024-03-02T03:43:14;0.00;0.00;0.00
65360;PMS5003;51958;55.018;73.536;2024-03-02T03:46:16;0.00;0.00;0.00
65360;PMS5003;51958;55.018;73.536;2024-03-02T03:49:17;0.00;0.00;0.00
65360;PMS5003;51958;55.018;73.536;2024-03-02T03:52:18;0.00;0.00;0.00
65360;PMS5003;51958;55.018;73.536;2024-03-02T03:55:20;0.00;0.00;0.00
65360;PMS5003;51958;55.018;73.536;2024-03-02T03:58:21;0.00;0.00;0.00
65360;PMS5003;51958;55.018;73.536;2024-03-02T04:01:23;0.00;0.00;0.00
65360;PMS5003;51958;55.018;73.536;2024-03-02T04:04:24;0.00;0.00;0.00
65360;PMS5003;51958;55.018;73.536;2024-03-02T04:07:26;0.00;0.00;0.00
65360;PMS5003;51958;55.018;73.536;2024-03-02T04:10:28;0.00;0.00;0.00
65360;PMS5003;51958;55.018;73.536;2024-03-02T04:13:31;0.00;0.00;0.00
65360;PMS5003;51958;55.018;73.536;2024-03-02T04:16:32;0.00;0.00;0.00
65360;PMS5003;51958;55.018;73.536;2024-03-02T04:19:34;0.00;0.00;0.00
65360;PMS5003;51958;55.018;73.536;2024-03-02T04:22:36;0.00;0.00;0.00
65360;PMS5003;51958;55.018;73.536;2024-03-02T04:25:37;0.00;0.00;0.00
65360;PMS5003;51958;55.018;73.536;2024-03-02T04:28:38;0.00;0.00;0.00
65360;PMS5003;51958;55.018;73.536;2024-03-02T04:31:40;0.00;0.00;0.00
65360;PMS5003;51958;55.018;73.536;2024-03-02T04:34:41;0.00;0.00;0.00
65360;PMS5003;51958;55.018;73.536;2024-03-02T04:37:42;0.00;0.00;0.00
65360;PMS5003;51958;55.018;73.536;2024-03-02T04:40:44;0.00;0.00;0.00
65360;PMS5003;51958;55.018;73.536;2024-03-02T04:43:46;0.00;0.00;0.00
65360;PMS5003;51958;55.018;73.536;2024-03-02T04:46:47;0.00;0.00;0.00
65360;PMS5003;51958;55.018;73.536;2024-03-02T04:49:48;0.00;0.00;0.00
65360;PMS5003;51958;55.018;73.536;2024-03-02T04:52:50;0.00;0.00;0.00
65360;PMS5003;51958;55.018;73.536;2024-03-02T04:55:51;0.00;0.00;0.00
65360;PMS5003;51958;55.018;73.536;2024-03-02T04:58:55;0.00;0.00;0.00
65360;PMS5003;51958;55.018;73.536;2024-03-02T05:01:56;0.00;0.00;0.00
65360;PMS5003;51958;55.018;73.536;2024-03-02T05:04:58;0.00;0.00;0.00
65360;PMS5003;51958;55.018;73.536;2024-03-02T05:08:00;0.00;0.00;0.00
65360;PMS5003;51958;55.018;73.536;2024-03-02T05:11:01;0.00;0.00;0.00
65360;PMS5003;51958;55.018;73.536;2024-03-02T05:14:22;0.00;0.00;0.00
65360;PMS5003;51958;55.018;73.536;2024-03-02T05:17:24;0.00;0.00;0.00
65360;PMS5003;51958;55.018;73.536;2024-03-02T05:20:25;0.00;0.00;0.00
65360;PMS5003;51958;55.018;73.536;2024-03-02T05:23:26;0.00;0.00;0.00
65360;PMS5003;51958;55.018;73.536;2024-03-02T05:26:28;0.00;0.00;0.00
65360;PMS5003;51958;55.018;73.536;2024-03-02T05:29:29;0.00;0.00;0.00
65360;PMS5003;51958;55.018;73.536;2024-03-02T05:32:31;0.00;0.00;0.00
65360;PMS5003;51958;55.018;73.536;2024-03-02T05:35:48;0.00;0.00;0.00
65360;PMS5003;51958;55.018;73.536;2024-03-02T05:38:51;0.00;0.00;0.00
65360;PMS5003;51958;55.018;73.536;2024-03-02T05:41:52;0.00;0.00;0.00
65360;PMS5003;51958;55.018;73.536;2024-03-02T05:44:53;0.00;0.00;0.00
65360;PMS5003;51958;55.018;73.536;2024-03-02T05:47:55;0.00;0.00;0.00
65360;PMS5003;51958;55.018;73.536;2024-03-02T05:50:56;0.00;0.00;0.00
65360;PMS5003;51958;55.018;73.536;2024-03-02T05:53:58;0.00;0.00;0.00
65360;PMS5003;51958;55.018;73.536;2024-03-02T05:56:59;0.00;0.00;0.00
65360;PMS5003;51958;55.018;73.536;2024-03-02T06:00:17;0.00;0.00;0.00
65360;PMS5003;51958;55.018;73.536;2024-03-02T06:03:19;0.00;0.00;0.00
65360;PMS5003;51958;55.018;73.536;2024-03-02T06:06:20;0.00;0.00;0.00
65360;PMS5003;51958;55.018;73.536;2024-03-02T06:09:22;0.00;0.00;0.00
65360;PMS5003;51958;55.018;73.536;2024-03-02T06:12:25;0.00;0.00;0.00
65360;PMS5003;51958;55.018;73.536;2024-03-02T06:15:26;0.00;0.00;0.00
65360;PMS5003;51958;55.018;73.536;2024-03-02T06:18:28;0.00;0.00;0.00
65360;PMS5003;51958;55.018;73.536;2024-03-02T06:21:29;0.00;0.00;0.00
65360;PMS5003;51958;55.018;73.536;2024-03-02T06:24:30;0.00;0.00;0.00
65360;PMS5003;51958;55.018;73.536;2024-03-02T06:27:31;0.00;0.00;0.00
65360;PMS5003;51958;55.018;73.536;2024-03-02T06:30:33;0.00;0.00;0.00
65360;PMS5003;51958;55.018;73.536;2024-03-02T06:33:34;0.00;0.00;0.00
65360;PMS5003;51958;55.018;73.536;2024-03-02T06:36:36;0.00;0.00;0.00
65360;PMS5003;51958;55.018;73.536;2024-03-02T06:39:37;0.00;0.00;0.00
65360;PMS5003;51958;55.018;73.536;2024-03-02T06:42:39;0.00;0.00;0.00
65360;PMS5003;51958;55.018;73.536;2024-03-02T06:45:40;0.00;0.00;0.00
65360;PMS5003;51958;55.018;73.536;2024-03-02T06:48:42;0.00;0.00;0.00
65360;PMS5003;51958;55.018;73.536;2024-03-02T06:51:44;0.00;0.00;0.00
65360;PMS5003;51958;55.018;73.536;2024-03-02T06:54:45;0.00;0.00;0.00
65360;PMS5003;51958;55.018;73.536;2024-03-02T06:57:46;2.00;0.00;0.00
65360;PMS5003;51958;55.018;73.536;2024-03-02T07:00:49;2.00;2.00;0.00
65360;PMS5003;51958;55.018;73.536;2024-03-02T07:03:51;4.00;2.00;0.00
65360;PMS5003;51958;55.018;73.536;2024-03-02T07:06:53;6.33;5.00;0.00
65360;PMS5003;51958;55.018;73.536;2024-03-02T07:09:54;8.00;8.00;2.00
65360;PMS5003;51958;55.018;73.536;2024-03-02T07:12:56;7.67;6.67;2.00
65360;PMS5003;51958;55.018;73.536;2024-03-02T07:15:57;5.00;3.33;0.00
65360;PMS5003;51958;55.018;73.536;2024-03-02T07:19:04;4.00;3.00;0.00
65360;PMS5003;51958;55.018;73.536;2024-03-02T07:22:06;7.00;6.00;3.00
65360;PMS5003;51958;55.018;73.536;2024-03-02T07:25:09;8.00;7.00;4.00
65360;PMS5003;51958;55.018;73.536;2024-03-02T07:28:10;11.00;8.00;3.00
65360;PMS5003;51958;55.018;73.536;2024-03-02T07:31:12;8.33;6.33;3.67
65360;PMS5003;51958;55.018;73.536;2024-03-02T07:34:13;5.00;2.67;0.00
65360;PMS5003;51958;55.018;73.536;2024-03-02T07:37:14;3.00;2.00;0.00
65360;PMS5003;51958;55.018;73.536;2024-03-02T07:40:15;2.00;1.00;0.00
65360;PMS5003;51958;55.018;73.536;2024-03-02T07:43:17;4.67;4.00;0.67
65360;PMS5003;51958;55.018;73.536;2024-03-02T07:46:18;4.00;2.00;1.00
65360;PMS5003;51958;55.018;73.536;2024-03-02T07:49:20;2.00;1.67;0.00
65360;PMS5003;51958;55.018;73.536;2024-03-02T07:52:21;0.00;0.00;0.00
65360;PMS5003;51958;55.018;73.536;2024-03-02T07:55:23;2.00;2.00;0.00
65360;PMS5003;51958;55.018;73.536;2024-03-02T07:58:26;2.00;2.00;0.00
65360;PMS5003;51958;55.018;73.536;2024-03-02T08:01:27;2.00;2.00;0.50
65360;PMS5003;51958;55.018;73.536;2024-03-02T08:04:30;0.00;0.00;0.00
65360;PMS5003;51958;55.018;73.536;2024-03-02T08:07:32;2.00;1.33;0.00
65360;PMS5003;51958;55.018;73.536;2024-03-02T08:10:33;0.00;0.00;0.00
65360;PMS5003;51958;55.018;73.536;2024-03-02T08:13:34;0.00;0.00;0.00
65360;PMS5003;51958;55.018;73.536;2024-03-02T08:16:36;0.00;0.00;0.00
65360;PMS5003;51958;55.018;73.536;2024-03-02T08:19:37;1.67;0.00;0.00
65360;PMS5003;51958;55.018;73.536;2024-03-02T08:22:39;2.00;2.00;0.00
65360;PMS5003;51958;55.018;73.536;2024-03-02T08:25:40;1.00;1.00;0.00
65360;PMS5003;51958;55.018;73.536;2024-03-02T08:28:42;1.00;0.00;0.00
65360;PMS5003;51958;55.018;73.536;2024-03-02T08:31:43;2.00;0.67;0.00
65360;PMS5003;51958;55.018;73.536;2024-03-02T08:34:45;0.33;0.33;0.00
65360;PMS5003;51958;55.018;73.536;2024-03-02T08:37:46;0.00;0.00;0.00
65360;PMS5003;51958;55.018;73.536;2024-03-02T08:40:47;1.00;0.00;0.00
65360;PMS5003;51958;55.018;73.536;2024-03-02T08:43:48;0.00;0.00;0.00
65360;PMS5003;51958;55.018;73.536;2024-03-02T08:46:50;0.00;0.00;0.00
65360;PMS5003;51958;55.018;73.536;2024-03-02T08:49:51;0.00;0.00;0.00
65360;PMS5003;51958;55.018;73.536;2024-03-02T08:52:52;0.00;0.00;0.00
65360;PMS5003;51958;55.018;73.536;2024-03-02T08:55:54;1.00;0.00;0.00
65360;PMS5003;51958;55.018;73.536;2024-03-02T08:58:56;0.00;0.00;0.00
65360;PMS5003;51958;55.018;73.536;2024-03-02T09:01:57;0.00;0.00;0.00
65360;PMS5003;51958;55.018;73.536;2024-03-02T09:04:58;1.00;0.00;0.00
65360;PMS5003;51958;55.018;73.536;2024-03-02T09:08:00;0.00;0.00;0.00
65360;PMS5003;51958;55.018;73.536;2024-03-02T09:11:02;0.00;0.00;0.00
65360;PMS5003;51958;55.018;73.536;2024-03-02T09:14:03;4.50;2.50;0.00
65360;PMS5003;51958;55.018;73.536;2024-03-02T09:17:06;1.00;1.00;0.00
65360;PMS5003;51958;55.018;73.536;2024-03-02T09:20:07;3.00;3.00;0.00
65360;PMS5003;51958;55.018;73.536;2024-03-02T09:23:08;0.00;0.00;0.00
65360;PMS5003;51958;55.018;73.536;2024-03-02T09:26:10;2.00;2.00;0.00
65360;PMS5003;51958;55.018;73.536;2024-03-02T09:29:11;0.50;0.00;0.00
65360;PMS5003;51958;55.018;73.536;2024-03-02T09:32:12;0.00;0.00;0.00
65360;PMS5003;51958;55.018;73.536;2024-03-02T09:35:14;0.00;0.00;0.00
65360;PMS5003;51958;55.018;73.536;2024-03-02T09:38:16;0.00;0.00;0.00
65360;PMS5003;51958;55.018;73.536;2024-03-02T09:41:17;0.00;0.00;0.00
65360;PMS5003;51958;55.018;73.536;2024-03-02T09:44:18;2.00;2.00;0.00
65360;PMS5003;51958;55.018;73.536;2024-03-02T09:47:21;0.00;0.00;0.00
65360;PMS5003;51958;55.018;73.536;2024-03-02T09:50:22;0.00;0.00;0.00
65360;PMS5003;51958;55.018;73.536;2024-03-02T09:53:23;0.00;0.00;0.00
65360;PMS5003;51958;55.018;73.536;2024-03-02T09:56:25;0.00;0.00;0.00
65360;PMS5003;51958;55.018;73.536;2024-03-02T09:59:27;0.00;0.00;0.00
65360;PMS5003;51958;55.018;73.536;2024-03-02T10:02:29;0.00;0.00;0.00
65360;PMS5003;51958;55.018;73.536;2024-03-02T10:05:31;0.00;0.00;0.00
65360;PMS5003;51958;55.018;73.536;2024-03-02T10:08:42;0.00;0.00;0.00
65360;PMS5003;51958;55.018;73.536;2024-03-02T10:11:43;0.00;0.00;0.00
65360;PMS5003;51958;55.018;73.536;2024-03-02T10:14:45;0.00;0.00;0.00
65360;PMS5003;51958;55.018;73.536;2024-03-02T10:17:46;0.00;0.00;0.00
65360;PMS5003;51958;55.018;73.536;2024-03-02T10:20:47;0.00;0.00;0.00
65360;PMS5003;51958;55.018;73.536;2024-03-02T10:23:49;0.00;0.00;0.00
65360;PMS5003;51958;55.018;73.536;2024-03-02T10:26:51;0.00;0.00;0.00
65360;PMS5003;51958;55.018;73.536;2024-03-02T10:29:52;0.00;0.00;0.00
65360;PMS5003;51958;55.018;73.536;2024-03-02T10:32:54;0.00;0.00;0.00
65360;PMS5003;51958;55.018;73.536;2024-03-02T10:35:56;0.00;0.00;0.00
65360;PMS5003;51958;55.018;73.536;2024-03-02T10:38:57;0.00;0.00;0.00
65360;PMS5003;51958;55.018;73.536;2024-03-02T10:42:03;0.00;0.00;0.00
65360;PMS5003;51958;55.018;73.536;2024-03-02T10:45:11;0.00;0.00;0.00
65360;PMS5003;51958;55.018;73.536;2024-03-02T10:48:13;0.00;0.00;0.00
65360;PMS5003;51958;55.018;73.536;2024-03-02T10:51:14;0.00;0.00;0.00
65360;PMS5003;51958;55.018;73.536;2024-03-02T10:54:16;0.00;0.00;0.00
65360;PMS5003;51958;55.018;73.536;2024-03-02T10:57:20;0.00;0.00;0.00
65360;PMS5003;51958;55.018;73.536;2024-03-02T11:00:24;0.00;0.00;0.00
65360;PMS5003;51958;55.018;73.536;2024-03-02T11:03:29;0.00;0.00;0.00
65360;PMS5003;51958;55.018;73.536;2024-03-02T11:06:30;0.00;0.00;0.00
65360;PMS5003;51958;55.018;73.536;2024-03-02T11:09:35;0.00;0.00;0.00
65360;PMS5003;51958;55.018;73.536;2024-03-02T11:12:44;0.00;0.00;0.00
65360;PMS5003;51958;55.018;73.536;2024-03-02T11:15:51;0.00;0.00;0.00
65360;PMS5003;51958;55.018;73.536;2024-03-02T11:18:56;0.00;0.00;0.00
65360;PMS5003;51958;55.018;73.536;2024-03-02T11:21:59;0.00;0.00;0.00
65360;PMS5003;51958;55.018;73.536;2024-03-02T11:25:01;0.00;0.00;0.00
65360;PMS5003;51958;55.018;73.536;2024-03-02T11:28:04;0.00;0.00;0.00
65360;PMS5003;51958;55.018;73.536;2024-03-02T11:31:06;0.00;0.00;0.00
65360;PMS5003;51958;55.018;73.536;2024-03-02T11:37:27;0.00;0.00;0.00
65360;PMS5003;51958;55.018;73.536;2024-03-02T11:40:28;0.00;0.00;0.00
65360;PMS5003;51958;55.018;73.536;2024-03-02T11:43:30;0.00;0.00;0.00
65360;PMS5003;51958;55.018;73.536;2024-03-02T11:46:32;0.00;0.00;0.00
65360;PMS5003;51958;55.018;73.536;2024-03-02T11:49:38;0.00;0.00;0.00
65360;PMS5003;51958;55.018;73.536;2024-03-02T11:52:40;0.00;0.00;0.00
65360;PMS5003;51958;55.018;73.536;2024-03-02T11:55:42;0.00;0.00;0.00
65360;PMS5003;51958;55.018;73.536;2024-03-02T11:58:47;0.00;0.00;0.00
65360;PMS5003;51958;55.018;73.536;2024-03-02T12:01:50;0.00;0.00;0.00
65360;PMS5003;51958;55.018;73.536;2024-03-02T12:04:51;0.00;0.00;0.00
65360;PMS5003;51958;55.018;73.536;2024-03-02T12:07:59;0.00;0.00;0.00
65360;PMS5003;51958;55.018;73.536;2024-03-02T12:11:01;0.00;0.00;0.00
65360;PMS5003;51958;55.018;73.536;2024-03-02T12:14:03;0.00;0.00;0.00
65360;PMS5003;51958;55.018;73.536;2024-03-02T12:17:05;0.00;0.00;0.00
65360;PMS5003;51958;55.018;73.536;2024-03-02T12:20:07;0.00;0.00;0.00
65360;PMS5003;51958;55.018;73.536;2024-03-02T12:23:08;0.00;0.00;0.00
65360;PMS5003;51958;55.018;73.536;2024-03-02T12:26:19;0.00;0.00;0.00
65360;PMS5003;51958;55.018;73.536;2024-03-02T12:29:21;0.00;0.00;0.00
65360;PMS5003;51958;55.018;73.536;2024-03-02T12:32:25;1.00;0.00;0.00
65360;PMS5003;51958;55.018;73.536;2024-03-02T12:35:28;1.00;0.00;0.00
65360;PMS5003;51958;55.018;73.536;2024-03-02T12:38:29;0.00;0.00;0.00
65360;PMS5003;51958;55.018;73.536;2024-03-02T12:41:31;0.33;0.00;0.00
65360;PMS5003;51958;55.018;73.536;2024-03-02T12:44:33;0.00;0.00;0.00
65360;PMS5003;51958;55.018;73.536;2024-03-02T12:47:34;0.00;0.00;0.00
65360;PMS5003;51958;55.018;73.536;2024-03-02T12:50:35;0.00;0.00;0.00
65360;PMS5003;51958;55.018;73.536;2024-03-02T12:53:37;0.00;0.00;0.00
65360;PMS5003;51958;55.018;73.536;2024-03-02T12:56:40;0.00;0.00;0.00
65360;PMS5003;51958;55.018;73.536;2024-03-02T12:59:46;0.00;0.00;0.00
65360;PMS5003;51958;55.018;73.536;2024-03-02T13:02:59;0.00;0.00;0.00
65360;PMS5003;51958;55.018;73.536;2024-03-02T13:06:04;0.00;0.00;0.00
65360;PMS5003;51958;55.018;73.536;2024-03-02T13:09:05;0.00;0.00;0.00
65360;PMS5003;51958;55.018;73.536;2024-03-02T13:12:34;0.00;0.00;0.00
65360;PMS5003;51958;55.018;73.536;2024-03-02T13:15:36;0.00;0.00;0.00
65360;PMS5003;51958;55.018;73.536;2024-03-02T13:18:40;0.00;0.00;0.00
65360;PMS5003;51958;55.018;73.536;2024-03-02T13:21:58;0.00;0.00;0.00
65360;PMS5003;51958;55.018;73.536;2024-03-02T13:24:59;0.00;0.00;0.00
65360;PMS5003;51958;55.018;73.536;2024-03-02T13:28:02;0.00;0.00;0.00
65360;PMS5003;51958;55.018;73.536;2024-03-02T13:31:04;0.00;0.00;0.00
65360;PMS5003;51958;55.018;73.536;2024-03-02T13:34:05;0.00;0.00;0.00
65360;PMS5003;51958;55.018;73.536;2024-03-02T13:37:07;0.00;0.00;0.00
65360;PMS5003;51958;55.018;73.536;2024-03-02T13:40:08;0.00;0.00;0.00
65360;PMS5003;51958;55.018;73.536;2024-03-02T13:43:14;1.00;0.00;0.00
65360;PMS5003;51958;55.018;73.536;2024-03-02T13:46:16;0.00;0.00;0.00
65360;PMS5003;51958;55.018;73.536;2024-03-02T13:49:18;0.00;0.00;0.00
65360;PMS5003;51958;55.018;73.536;2024-03-02T13:52:37;0.00;0.00;0.00
65360;PMS5003;51958;55.018;73.536;2024-03-02T13:55:39;0.00;0.00;0.00
65360;PMS5003;51958;55.018;73.536;2024-03-02T13:58:42;0.00;0.00;0.00
65360;PMS5003;51958;55.018;73.536;2024-03-02T14:01:44;1.33;0.00;0.00
65360;PMS5003;51958;55.018;73.536;2024-03-02T14:04:46;1.00;0.00;0.00
65360;PMS5003;51958;55.018;73.536;2024-03-02T14:08:09;0.00;0.00;0.00
65360;PMS5003;51958;55.018;73.536;2024-03-02T14:11:10;0.00;0.00;0.00
65360;PMS5003;51958;55.018;73.536;2024-03-02T14:14:15;0.00;0.00;0.00
65360;PMS5003;51958;55.018;73.536;2024-03-02T14:17:17;0.00;0.00;0.00
65360;PMS5003;51958;55.018;73.536;2024-03-02T14:20:18;0.00;0.00;0.00
65360;PMS5003;51958;55.018;73.536;2024-03-02T14:23:23;0.00;0.00;0.00
65360;PMS5003;51958;55.018;73.536;2024-03-02T14:26:24;0.00;0.00;0.00
65360;PMS5003;51958;55.018;73.536;2024-03-02T14:29:25;0.00;0.00;0.00
65360;PMS5003;51958;55.018;73.536;2024-03-02T14:32:27;1.00;0.00;0.00
65360;PMS5003;51958;55.018;73.536;2024-03-02T14:35:28;1.00;0.00;0.00
65360;PMS5003;51958;55.018;73.536;2024-03-02T14:38:29;0.00;0.00;0.00
65360;PMS5003;51958;55.018;73.536;2024-03-02T14:41:31;0.00;0.00;0.00
65360;PMS5003;51958;55.018;73.536;2024-03-02T14:44:33;1.50;1.50;0.00
65360;PMS5003;51958;55.018;73.536;2024-03-02T14:47:35;2.00;2.00;0.00
65360;PMS5003;51958;55.018;73.536;2024-03-02T14:50:36;6.50;6.00;3.00
65360;PMS5003;51958;55.018;73.536;2024-03-02T14:53:38;11.00;9.33;3.33
65360;PMS5003;51958;55.018;73.536;2024-03-02T14:56:39;9.00;7.00;3.00
65360;PMS5003;51958;55.018;73.536;2024-03-02T14:59:41;8.00;7.00;3.00
65360;PMS5003;51958;55.018;73.536;2024-03-02T15:02:43;12.67;7.00;3.00
65360;PMS5003;51958;55.018;73.536;2024-03-02T15:05:44;13.00;8.00;3.33
65360;PMS5003;51958;55.018;73.536;2024-03-02T15:08:48;12.00;8.00;4.00
65360;PMS5003;51958;55.018;73.536;2024-03-02T15:11:49;14.67;13.00;6.00
65360;PMS5003;51958;55.018;73.536;2024-03-02T15:14:50;19.67;15.00;6.67
65360;PMS5003;51958;55.018;73.536;2024-03-02T15:17:52;20.00;15.00;6.00
65360;PMS5003;51958;55.018;73.536;2024-03-02T15:20:53;19.00;15.00;6.00
65360;PMS5003;51958;55.018;73.536;2024-03-02T15:23:55;14.33;12.00;4.00
65360;PMS5003;51958;55.018;73.536;2024-03-02T15:26:56;15.00;12.00;4.67
65360;PMS5003;51958;55.018;73.536;2024-03-02T15:29:58;14.33;12.33;5.33
65360;PMS5003;51958;55.018;73.536;2024-03-02T15:33:00;14.00;14.00;6.00
65360;PMS5003;51958;55.018;73.536;2024-03-02T15:36:03;12.33;11.00;4.00
65360;PMS5003;51958;55.018;73.536;2024-03-02T15:39:07;15.00;12.00;5.33
65360;PMS5003;51958;55.018;73.536;2024-03-02T15:45:11;12.00;10.00;5.00
65360;PMS5003;51958;55.018;73.536;2024-03-02T15:48:12;14.00;12.00;6.00
65360;PMS5003;51958;55.018;73.536;2024-03-02T15:51:14;13.50;12.00;6.00
65360;PMS5003;51958;55.018;73.536;2024-03-02T15:54:16;14.00;12.00;6.00
65360;PMS5003;51958;55.018;73.536;2024-03-02T15:57:18;12.00;12.00;4.50
65360;PMS5003;51958;55.018;73.536;2024-03-02T16:00:20;15.00;13.00;6.00
65360;PMS5003;51958;55.018;73.536;2024-03-02T16:03:22;15.33;14.00;6.00
65360;PMS5003;51958;55.018;73.536;2024-03-02T16:06:25;19.00;16.00;8.00
65360;PMS5003;51958;55.018;73.536;2024-03-02T16:12:28;21.00;18.00;10.00
65360;PMS5003;51958;55.018;73.536;2024-03-02T16:15:29;26.00;21.00;13.00
65360;PMS5003;51958;55.018;73.536;2024-03-02T16:18:33;30.00;22.00;13.00
65360;PMS5003;51958;55.018;73.536;2024-03-02T16:21:36;26.50;21.00;13.00
65360;PMS5003;51958;55.018;73.536;2024-03-02T16:24:38;22.00;20.00;12.00
65360;PMS5003;51958;55.018;73.536;2024-03-02T16:33:46;25.50;20.00;12.00
65360;PMS5003;51958;55.018;73.536;2024-03-02T16:48:52;25.33;21.33;13.00
65360;PMS5003;51958;55.018;73.536;2024-03-02T17:16:05;18.67;17.00;11.00
65360;PMS5003;51958;55.018;73.536;2024-03-02T17:37:19;18.00;16.67;10.00
65360;PMS5003;51958;55.018;73.536;2024-03-02T17:49:29;15.50;14.00;7.50
65360;PMS5003;51958;55.018;73.536;2024-03-02T17:55:31;16.00;15.00;8.00
65360;PMS5003;51958;55.018;73.536;2024-03-02T17:58:33;20.00;16.00;9.00
65360;PMS5003;51958;55.018;73.536;2024-03-02T18:01:34;20.50;17.00;10.00
65360;PMS5003;51958;55.018;73.536;2024-03-02T18:04:36;20.33;18.67;11.00
65360;PMS5003;51958;55.018;73.536;2024-03-02T18:07:37;22.00;20.00;12.00
65360;PMS5003;51958;55.018;73.536;2024-03-02T18:10:39;23.00;18.33;11.00
65360;PMS5003;51958;55.018;73.536;2024-03-02T18:13:40;21.00;18.00;11.00
65360;PMS5003;51958;55.018;73.536;2024-03-02T18:16:42;23.00;18.33;12.00
65360;PMS5003;51958;55.018;73.536;2024-03-02T18:19:44;22.00;18.00;10.50
65360;PMS5003;51958;55.018;73.536;2024-03-02T18:22:45;23.33;20.00;12.00
65360;PMS5003;51958;55.018;73.536;2024-03-02T18:25:46;22.00;19.00;12.00
65360;PMS5003;51958;55.018;73.536;2024-03-02T18:28:48;20.00;19.00;12.33
65360;PMS5003;51958;55.018;73.536;2024-03-02T18:31:49;22.00;20.00;13.00
65360;PMS5003;51958;55.018;73.536;2024-03-02T18:34:52;20.67;19.00;12.00
65360;PMS5003;51958;55.018;73.536;2024-03-02T18:37:53;21.00;19.00;12.00
65360;PMS5003;51958;55.018;73.536;2024-03-02T18:40:54;21.00;18.67;12.33
65360;PMS5003;51958;55.018;73.536;2024-03-02T18:43:56;22.67;19.00;12.00
65360;PMS5003;51958;55.018;73.536;2024-03-02T18:46:57;18.00;15.00;10.00
65360;PMS5003;51958;55.018;73.536;2024-03-02T18:49:58;15.00;13.00;8.00